OROVILLE DAM (ORO)

Elevation: 900' · FEATHER R basin · Operator: CA Dept of Water Resources/O & M

Provisional data, subject to change.
Query executed Wednesday at 20:00:50   clock

Select a sensor type for a plot of data.
Note: Reservoir Flows are daily averages.

Earlier

Date RES ELE    STORAGE    RES CHG    TOC STO    ABV TOC    OUTFLOW    INFLOW    EVAP    FNF    PPT INC    RAIN    PPTINC4   
 FEET   AF   AF   AF   AF   CFS   CFS   CFS   CFS   INCHES   INCHES   INCHES  
03/25/2014 744.49 1626705 2919 3033800 -1407095 638 2164 54 2883 0.00 15.16 0.00
03/26/2014 744.95 1630908 4203 3011000 -1382592 739 2917 13 3917 0.56 15.72 0.15
03/27/2014 745.30 1634110 3202 3004800 -1370690 858 2442 15 3391 0.00 15.72 0.56
03/28/2014 745.72 1637959 3849 2998300 -1360341 816 2829 27 3992 0.08 15.80 0.00
03/29/2014 749.30 1671028 33069 2888500 -1217472 790 17428 13 23665 1.60 17.40 0.44
03/30/2014 752.20 1698160 27132 2890500 -1192340 731 14476 20 16891 0.16 17.56 1.20
03/31/2014 754.10 1716103 17943 2884900 -1168797 361 9554 98 11757 0.40 17.96 0.12
04/01/2014 755.68 1731127 15024 2889800 -1158673 422 7912 11 9810 0.20 18.16 0.44
04/02/2014 756.82 1742025 10898 2913500 -1171475 700 6255 13 7322 0.00 18.16 0.12
04/03/2014 757.80 1751431 9406 2934200 -1182769 728 5448 26 6207 0.00 18.16 0.00
04/04/2014 758.66 1759716 8285 2954500 -1194784 728 4984 31 6943 0.12 18.28 0.00
04/05/2014 759.38 1766674 6958 2977100 -1210426 715 4159 34 5045 0.00 18.28 0.12
04/06/2014 760.06 1773271 6597 2998800 -1225529 718 4170 34 5676 0.00 18.28 0.00
04/07/2014 760.90 1781426 8155 3020100 -1238674 704 4887 73 6234 0.00 18.28 0.00
04/08/2014 761.62 1788437 7011 3041600 -1253163 701 4260 73 5649 0.00 18.28 0.00
04/09/2014 762.53 1797327 8890 3062700 -1265373 702 5296 63 6232 0.00 18.28 0.00
04/10/2014 763.32 1805070 7744 3083500 -1278430 751 4736 82 5920 0.00 18.28 0.00
04/11/2014 764.06 1812346 7275 3103900 -1291554 737 4481 77 5743 0.00 18.28 0.00
04/12/2014 764.66 1818260 5914 3124100 -1305840 746 3799 71 5264 0.00 18.28 0.00
04/13/2014 765.25 1824089 5829 3143900 -1319811 748 3701 64 4884 0.00 18.28 0.00
04/14/2014 765.73 1828841 4752 3163500 -1334659 747 3258 66 4274 0.00 18.28 0.00
04/15/2014 766.30 1834496 5655 3182700 -1348204 741 3658 67 4464 0.00 18.28 0.00
04/16/2014 766.80 1839467 4971 3201700 -1362233 748 3325 72 4429 0.00 18.28 0.00
04/17/2014 767.21 1843551 4084 3220400 -1376849 746 2826 72 3981 0.00 18.28 0.00
04/18/2014 767.66 1848040 4489 3238300 -1390260 742 3077 72 3769 e 0.00 18.28 0.00
04/19/2014 768.02 1851637 3597 3256500 -1404863 734 2615 67 3769 e 0.00 18.28 0.00
04/20/2014 768.42 1855640 4003 3274400 -1418760 739 2874 67 4007 0.00 18.28 0.00
04/21/2014 768.74 1858846 3206 3292100 -1433254 741 2446 88 -- 0.00 18.28 0.00
04/22/2014 769.07 1862157 3311 3305100 -1442943 748 2412 46 -- 0.00 18.28 0.00
04/23/2014 -- -- -- -- -- -- -- -- -- -- -- 0.00

Later | Latest

Warning! This data is preliminary and subject to revision.

Download Data Now Download Data Now | Show ORO Map | Plot ORO Data | 1 Month ORO Data | Real-Time ORO Data | ORO Info